Terminal Aerodrome Forecast
Issued by NWS Jackson, MS

Home | Current Version | Previous Version | Text Only | Print | Product List | Glossary On
Versions: 1 2 3 4 5 6 7 8 9 10 11 12
000
FTUS44 KJAN 041749
TAFGWO
TAF
KGWO 041749Z 0418/0518 VRB04KT 6SM BR BKN007 OVC012
     FM050200 01005KT P6SM SCT007 SCT015 BKN050
     FM051000 05006KT 5SM -RA BR BKN007 OVC015=

USA.gov is the U.S. government's official web portal to all federal, state and local government web resources and services.